sensor_id;sensor_type;location;lat;lon;timestamp;P1;durP1;ratioP1;P2;durP2;ratioP2
18875;SDS011;9570;50.854;13.778;2022-12-11T00:01:30;23.63;;;14.77;;
18875;SDS011;9570;50.854;13.778;2022-12-11T00:03:55;21.93;;;13.57;;
18875;SDS011;9570;50.854;13.778;2022-12-11T00:06:21;23.63;;;14.37;;
18875;SDS011;9570;50.854;13.778;2022-12-11T00:08:51;24.17;;;14.52;;
18875;SDS011;9570;50.854;13.778;2022-12-11T00:11:18;25.00;;;14.55;;
18875;SDS011;9570;50.854;13.778;2022-12-11T00:13:44;29.08;;;15.68;;
18875;SDS011;9570;50.854;13.778;2022-12-11T00:16:10;24.70;;;15.00;;
18875;SDS011;9570;50.854;13.778;2022-12-11T00:18:36;24.97;;;14.73;;
18875;SDS011;9570;50.854;13.778;2022-12-11T00:21:02;26.10;;;15.70;;
18875;SDS011;9570;50.854;13.778;2022-12-11T00:23:30;22.65;;;14.55;;
18875;SDS011;9570;50.854;13.778;2022-12-11T00:25:56;25.27;;;15.07;;
18875;SDS011;9570;50.854;13.778;2022-12-11T00:28:21;28.70;;;16.43;;
18875;SDS011;9570;50.854;13.778;2022-12-11T00:30:47;22.80;;;14.30;;
18875;SDS011;9570;50.854;13.778;2022-12-11T00:33:13;25.77;;;15.40;;
18875;SDS011;9570;50.854;13.778;2022-12-11T00:35:40;26.00;;;15.20;;
18875;SDS011;9570;50.854;13.778;2022-12-11T00:38:17;25.77;;;14.85;;
18875;SDS011;9570;50.854;13.778;2022-12-11T00:40:44;26.30;;;15.63;;
18875;SDS011;9570;50.854;13.778;2022-12-11T00:43:10;23.50;;;14.00;;
18875;SDS011;9570;50.854;13.778;2022-12-11T00:45:37;24.38;;;14.20;;
18875;SDS011;9570;50.854;13.778;2022-12-11T00:48:05;27.17;;;15.25;;
18875;SDS011;9570;50.854;13.778;2022-12-11T00:50:31;23.25;;;14.23;;
18875;SDS011;9570;50.854;13.778;2022-12-11T00:52:57;25.15;;;15.57;;
18875;SDS011;9570;50.854;13.778;2022-12-11T00:55:24;24.00;;;14.70;;
18875;SDS011;9570;50.854;13.778;2022-12-11T00:57:51;26.38;;;15.15;;
18875;SDS011;9570;50.854;13.778;2022-12-11T01:00:17;21.93;;;14.07;;
18875;SDS011;9570;50.854;13.778;2022-12-11T01:02:43;24.17;;;14.17;;
18875;SDS011;9570;50.854;13.778;2022-12-11T01:05:09;22.00;;;14.57;;
18875;SDS011;9570;50.854;13.778;2022-12-11T01:07:34;22.42;;;14.15;;
18875;SDS011;9570;50.854;13.778;2022-12-11T01:10:00;22.63;;;13.83;;
18875;SDS011;9570;50.854;13.778;2022-12-11T01:12:44;21.77;;;13.30;;
18875;SDS011;9570;50.854;13.778;2022-12-11T01:15:10;24.63;;;13.97;;
18875;SDS011;9570;50.854;13.778;2022-12-11T01:17:35;21.83;;;13.40;;
18875;SDS011;9570;50.854;13.778;2022-12-11T01:20:01;21.20;;;13.60;;
18875;SDS011;9570;50.854;13.778;2022-12-11T01:22:28;21.17;;;13.63;;
18875;SDS011;9570;50.854;13.778;2022-12-11T01:24:54;24.63;;;13.35;;
18875;SDS011;9570;50.854;13.778;2022-12-11T01:27:20;21.00;;;12.20;;
18875;SDS011;9570;50.854;13.778;2022-12-11T01:29:45;17.57;;;11.43;;
18875;SDS011;9570;50.854;13.778;2022-12-11T01:32:11;21.00;;;12.27;;
18875;SDS011;9570;50.854;13.778;2022-12-11T01:34:36;21.33;;;13.07;;
18875;SDS011;9570;50.854;13.778;2022-12-11T01:37:02;20.97;;;12.13;;
18875;SDS011;9570;50.854;13.778;2022-12-11T01:39:27;18.77;;;11.73;;
18875;SDS011;9570;50.854;13.778;2022-12-11T01:41:57;20.87;;;12.07;;
18875;SDS011;9570;50.854;13.778;2022-12-11T01:46:48;17.80;;;11.40;;
18875;SDS011;9570;50.854;13.778;2022-12-11T01:49:14;17.97;;;12.00;;
18875;SDS011;9570;50.854;13.778;2022-12-11T01:51:56;19.27;;;11.52;;
18875;SDS011;9570;50.854;13.778;2022-12-11T01:54:26;19.50;;;11.80;;
18875;SDS011;9570;50.854;13.778;2022-12-11T01:56:53;17.83;;;11.38;;
18875;SDS011;9570;50.854;13.778;2022-12-11T01:59:23;19.52;;;12.15;;
18875;SDS011;9570;50.854;13.778;2022-12-11T02:01:56;22.50;;;13.35;;
18875;SDS011;9570;50.854;13.778;2022-12-11T02:04:25;22.40;;;13.05;;
18875;SDS011;9570;50.854;13.778;2022-12-11T02:06:52;21.75;;;13.13;;
18875;SDS011;9570;50.854;13.778;2022-12-11T02:09:19;20.52;;;12.05;;
18875;SDS011;9570;50.854;13.778;2022-12-11T02:11:55;22.17;;;12.52;;
18875;SDS011;9570;50.854;13.778;2022-12-11T02:17:06;19.35;;;11.50;;
18875;SDS011;9570;50.854;13.778;2022-12-11T02:22:12;22.48;;;13.05;;
18875;SDS011;9570;50.854;13.778;2022-12-11T02:27:32;19.58;;;12.80;;
18875;SDS011;9570;50.854;13.778;2022-12-11T02:30:06;22.77;;;13.15;;
18875;SDS011;9570;50.854;13.778;2022-12-11T02:32:36;20.13;;;13.00;;
18875;SDS011;9570;50.854;13.778;2022-12-11T02:35:09;22.52;;;14.13;;
18875;SDS011;9570;50.854;13.778;2022-12-11T02:37:42;23.38;;;13.88;;
18875;SDS011;9570;50.854;13.778;2022-12-11T02:40:09;21.77;;;13.40;;
18875;SDS011;9570;50.854;13.778;2022-12-11T02:42:38;21.45;;;13.32;;
18875;SDS011;9570;50.854;13.778;2022-12-11T02:45:06;23.77;;;13.27;;
18875;SDS011;9570;50.854;13.778;2022-12-11T02:47:34;22.42;;;13.23;;
18875;SDS011;9570;50.854;13.778;2022-12-11T02:50:01;22.58;;;13.80;;
18875;SDS011;9570;50.854;13.778;2022-12-11T02:52:31;22.63;;;12.80;;
18875;SDS011;9570;50.854;13.778;2022-12-11T02:54:58;20.92;;;13.07;;
18875;SDS011;9570;50.854;13.778;2022-12-11T02:57:28;21.85;;;13.38;;
18875;SDS011;9570;50.854;13.778;2022-12-11T02:59:59;21.17;;;12.80;;
18875;SDS011;9570;50.854;13.778;2022-12-11T03:02:25;21.70;;;13.57;;
18875;SDS011;9570;50.854;13.778;2022-12-11T03:04:51;23.97;;;13.40;;
18875;SDS011;9570;50.854;13.778;2022-12-11T03:07:18;20.17;;;12.53;;
18875;SDS011;9570;50.854;13.778;2022-12-11T03:09:47;23.25;;;13.93;;
18875;SDS011;9570;50.854;13.778;2022-12-11T03:12:16;20.00;;;13.00;;
18875;SDS011;9570;50.854;13.778;2022-12-11T03:14:44;22.90;;;14.02;;
18875;SDS011;9570;50.854;13.778;2022-12-11T03:17:16;20.75;;;13.48;;
18875;SDS011;9570;50.854;13.778;2022-12-11T03:22:16;24.30;;;13.77;;
18875;SDS011;9570;50.854;13.778;2022-12-11T03:24:48;24.02;;;15.20;;
18875;SDS011;9570;50.854;13.778;2022-12-11T03:27:17;24.02;;;14.73;;
18875;SDS011;9570;50.854;13.778;2022-12-11T03:29:54;22.60;;;14.05;;
18875;SDS011;9570;50.854;13.778;2022-12-11T03:32:25;23.70;;;14.27;;
18875;SDS011;9570;50.854;13.778;2022-12-11T03:35:06;25.55;;;14.27;;
18875;SDS011;9570;50.854;13.778;2022-12-11T03:37:37;23.98;;;14.90;;
18875;SDS011;9570;50.854;13.778;2022-12-11T03:40:06;23.25;;;14.25;;
18875;SDS011;9570;50.854;13.778;2022-12-11T03:42:40;28.65;;;16.17;;
18875;SDS011;9570;50.854;13.778;2022-12-11T03:45:07;24.70;;;15.05;;
18875;SDS011;9570;50.854;13.778;2022-12-11T03:47:33;23.98;;;14.68;;
18875;SDS011;9570;50.854;13.778;2022-12-11T03:50:02;23.60;;;14.82;;
18875;SDS011;9570;50.854;13.778;2022-12-11T03:52:31;24.58;;;14.40;;
18875;SDS011;9570;50.854;13.778;2022-12-11T03:54:58;20.92;;;13.68;;
18875;SDS011;9570;50.854;13.778;2022-12-11T03:57:28;25.42;;;15.07;;
18875;SDS011;9570;50.854;13.778;2022-12-11T03:59:59;25.23;;;14.93;;
18875;SDS011;9570;50.854;13.778;2022-12-11T04:02:24;25.93;;;14.00;;
18875;SDS011;9570;50.854;13.778;2022-12-11T04:04:50;26.73;;;15.33;;
18875;SDS011;9570;50.854;13.778;2022-12-11T04:07:16;22.43;;;14.70;;
18875;SDS011;9570;50.854;13.778;2022-12-11T04:09:41;24.17;;;14.17;;
18875;SDS011;9570;50.854;13.778;2022-12-11T04:12:07;22.17;;;13.40;;
18875;SDS011;9570;50.854;13.778;2022-12-11T04:14:32;25.20;;;14.50;;
18875;SDS011;9570;50.854;13.778;2022-12-11T04:17:31;25.98;;;14.13;;
18875;SDS011;9570;50.854;13.778;2022-12-11T04:20:17;23.80;;;13.60;;
18875;SDS011;9570;50.854;13.778;2022-12-11T04:23:06;20.65;;;12.55;;
18875;SDS011;9570;50.854;13.778;2022-12-11T04:26:06;25.27;;;14.25;;
18875;SDS011;9570;50.854;13.778;2022-12-11T04:28:34;24.40;;;14.50;;
18875;SDS011;9570;50.854;13.778;2022-12-11T04:31:00;24.35;;;14.23;;
18875;SDS011;9570;50.854;13.778;2022-12-11T04:33:26;23.13;;;13.13;;
18875;SDS011;9570;50.854;13.778;2022-12-11T04:35:52;23.98;;;13.45;;
18875;SDS011;9570;50.854;13.778;2022-12-11T04:38:17;22.23;;;13.57;;
18875;SDS011;9570;50.854;13.778;2022-12-11T04:40:43;26.03;;;13.73;;
18875;SDS011;9570;50.854;13.778;2022-12-11T04:43:08;21.10;;;12.60;;
18875;SDS011;9570;50.854;13.778;2022-12-11T04:45:34;21.33;;;13.13;;
18875;SDS011;9570;50.854;13.778;2022-12-11T04:47:59;22.30;;;13.20;;
18875;SDS011;9570;50.854;13.778;2022-12-11T04:50:25;21.93;;;13.50;;
18875;SDS011;9570;50.854;13.778;2022-12-11T04:52:53;18.40;;;11.73;;
18875;SDS011;9570;50.854;13.778;2022-12-11T04:55:19;22.60;;;12.20;;
18875;SDS011;9570;50.854;13.778;2022-12-11T04:57:45;21.27;;;12.80;;
18875;SDS011;9570;50.854;13.778;2022-12-11T05:00:11;22.60;;;12.30;;
18875;SDS011;9570;50.854;13.778;2022-12-11T05:02:37;22.20;;;12.93;;
18875;SDS011;9570;50.854;13.778;2022-12-11T05:05:04;21.13;;;13.30;;
18875;SDS011;9570;50.854;13.778;2022-12-11T05:07:33;22.65;;;12.75;;
18875;SDS011;9570;50.854;13.778;2022-12-11T05:09:58;20.47;;;12.77;;
18875;SDS011;9570;50.854;13.778;2022-12-11T05:12:24;21.70;;;13.03;;
18875;SDS011;9570;50.854;13.778;2022-12-11T05:14:50;21.53;;;12.57;;
18875;SDS011;9570;50.854;13.778;2022-12-11T05:17:17;20.70;;;11.82;;
18875;SDS011;9570;50.854;13.778;2022-12-11T05:19:43;21.20;;;13.63;;
18875;SDS011;9570;50.854;13.778;2022-12-11T05:22:10;22.77;;;12.27;;
18875;SDS011;9570;50.854;13.778;2022-12-11T05:24:37;22.98;;;13.45;;
18875;SDS011;9570;50.854;13.778;2022-12-11T05:27:03;20.10;;;12.33;;
18875;SDS011;9570;50.854;13.778;2022-12-11T05:29:28;19.20;;;11.97;;
18875;SDS011;9570;50.854;13.778;2022-12-11T05:31:54;20.53;;;12.40;;
18875;SDS011;9570;50.854;13.778;2022-12-11T05:34:19;19.77;;;11.40;;
18875;SDS011;9570;50.854;13.778;2022-12-11T05:36:45;22.97;;;12.70;;
18875;SDS011;9570;50.854;13.778;2022-12-11T05:39:11;21.88;;;13.00;;
18875;SDS011;9570;50.854;13.778;2022-12-11T05:41:36;20.50;;;12.53;;
18875;SDS011;9570;50.854;13.778;2022-12-11T05:44:02;19.40;;;11.60;;
18875;SDS011;9570;50.854;13.778;2022-12-11T05:46:28;17.63;;;10.47;;
18875;SDS011;9570;50.854;13.778;2022-12-11T05:48:55;17.17;;;10.10;;
18875;SDS011;9570;50.854;13.778;2022-12-11T05:51:22;16.98;;;10.32;;
18875;SDS011;9570;50.854;13.778;2022-12-11T05:53:49;18.33;;;11.50;;
18875;SDS011;9570;50.854;13.778;2022-12-11T05:56:17;18.75;;;10.90;;
18875;SDS011;9570;50.854;13.778;2022-12-11T05:58:50;19.80;;;10.98;;
18875;SDS011;9570;50.854;13.778;2022-12-11T06:01:18;20.50;;;12.02;;
18875;SDS011;9570;50.854;13.778;2022-12-11T06:03:44;17.83;;;10.77;;
18875;SDS011;9570;50.854;13.778;2022-12-11T06:06:10;16.37;;;10.70;;
18875;SDS011;9570;50.854;13.778;2022-12-11T06:08:36;16.73;;;9.88;;
18875;SDS011;9570;50.854;13.778;2022-12-11T06:11:01;17.40;;;10.63;;
18875;SDS011;9570;50.854;13.778;2022-12-11T06:13:28;16.30;;;9.65;;
18875;SDS011;9570;50.854;13.778;2022-12-11T06:15:54;17.67;;;9.97;;
18875;SDS011;9570;50.854;13.778;2022-12-11T06:18:23;18.95;;;10.68;;
18875;SDS011;9570;50.854;13.778;2022-12-11T06:20:48;16.87;;;10.37;;
18875;SDS011;9570;50.854;13.778;2022-12-11T06:23:14;15.93;;;10.07;;
18875;SDS011;9570;50.854;13.778;2022-12-11T06:25:39;16.00;;;10.00;;
18875;SDS011;9570;50.854;13.778;2022-12-11T06:28:05;19.53;;;10.63;;
18875;SDS011;9570;50.854;13.778;2022-12-11T06:30:30;16.13;;;10.17;;
18875;SDS011;9570;50.854;13.778;2022-12-11T06:32:57;17.60;;;10.47;;
18875;SDS011;9570;50.854;13.778;2022-12-11T06:35:22;21.83;;;10.98;;
18875;SDS011;9570;50.854;13.778;2022-12-11T06:37:48;19.93;;;11.17;;
18875;SDS011;9570;50.854;13.778;2022-12-11T06:40:14;20.17;;;10.93;;
18875;SDS011;9570;50.854;13.778;2022-12-11T06:42:39;18.03;;;10.73;;
18875;SDS011;9570;50.854;13.778;2022-12-11T06:45:05;22.50;;;11.97;;
18875;SDS011;9570;50.854;13.778;2022-12-11T06:47:31;19.37;;;10.63;;
18875;SDS011;9570;50.854;13.778;2022-12-11T06:49:57;18.93;;;11.00;;
18875;SDS011;9570;50.854;13.778;2022-12-11T06:52:23;18.43;;;10.40;;
18875;SDS011;9570;50.854;13.778;2022-12-11T06:54:51;17.70;;;9.98;;
18875;SDS011;9570;50.854;13.778;2022-12-11T06:57:17;17.93;;;9.50;;
18875;SDS011;9570;50.854;13.778;2022-12-11T06:59:43;20.08;;;11.27;;
18875;SDS011;9570;50.854;13.778;2022-12-11T07:02:11;18.20;;;10.37;;
18875;SDS011;9570;50.854;13.778;2022-12-11T07:04:38;20.90;;;10.82;;
18875;SDS011;9570;50.854;13.778;2022-12-11T07:07:04;18.80;;;10.93;;
18875;SDS011;9570;50.854;13.778;2022-12-11T07:09:29;19.93;;;11.07;;
18875;SDS011;9570;50.854;13.778;2022-12-11T07:11:55;18.73;;;10.90;;
18875;SDS011;9570;50.854;13.778;2022-12-11T07:14:20;18.20;;;11.27;;
18875;SDS011;9570;50.854;13.778;2022-12-11T07:16:46;20.23;;;11.57;;
18875;SDS011;9570;50.854;13.778;2022-12-11T07:19:11;21.73;;;11.67;;
18875;SDS011;9570;50.854;13.778;2022-12-11T07:21:37;21.57;;;11.43;;
18875;SDS011;9570;50.854;13.778;2022-12-11T07:24:03;20.17;;;12.43;;
18875;SDS011;9570;50.854;13.778;2022-12-11T07:26:28;20.50;;;12.40;;
18875;SDS011;9570;50.854;13.778;2022-12-11T07:28:57;20.63;;;12.03;;
18875;SDS011;9570;50.854;13.778;2022-12-11T07:31:24;20.42;;;12.00;;
18875;SDS011;9570;50.854;13.778;2022-12-11T07:33:54;23.40;;;13.27;;
18875;SDS011;9570;50.854;13.778;2022-12-11T07:36:29;27.20;;;13.70;;
18875;SDS011;9570;50.854;13.778;2022-12-11T07:38:54;24.05;;;13.25;;
18875;SDS011;9570;50.854;13.778;2022-12-11T07:41:20;21.47;;;12.57;;
18875;SDS011;9570;50.854;13.778;2022-12-11T07:43:47;19.67;;;11.70;;
18875;SDS011;9570;50.854;13.778;2022-12-11T07:46:14;18.03;;;10.27;;
18875;SDS011;9570;50.854;13.778;2022-12-11T07:48:42;18.42;;;10.32;;
18875;SDS011;9570;50.854;13.778;2022-12-11T07:51:09;21.25;;;11.38;;
18875;SDS011;9570;50.854;13.778;2022-12-11T07:53:35;17.13;;;10.23;;
18875;SDS011;9570;50.854;13.778;2022-12-11T07:56:01;16.43;;;9.97;;
18875;SDS011;9570;50.854;13.778;2022-12-11T07:58:26;18.53;;;9.53;;
18875;SDS011;9570;50.854;13.778;2022-12-11T08:00:52;16.87;;;10.60;;
18875;SDS011;9570;50.854;13.778;2022-12-11T08:03:17;17.27;;;10.33;;
18875;SDS011;9570;50.854;13.778;2022-12-11T08:05:49;17.67;;;10.73;;
18875;SDS011;9570;50.854;13.778;2022-12-11T08:08:15;16.33;;;9.93;;
18875;SDS011;9570;50.854;13.778;2022-12-11T08:10:41;15.93;;;9.53;;
18875;SDS011;9570;50.854;13.778;2022-12-11T08:13:07;18.43;;;10.77;;
18875;SDS011;9570;50.854;13.778;2022-12-11T08:15:32;19.00;;;9.87;;
18875;SDS011;9570;50.854;13.778;2022-12-11T08:17:58;15.67;;;9.57;;
18875;SDS011;9570;50.854;13.778;2022-12-11T08:20:23;19.63;;;10.60;;
18875;SDS011;9570;50.854;13.778;2022-12-11T08:22:49;19.07;;;10.43;;
18875;SDS011;9570;50.854;13.778;2022-12-11T08:25:14;17.50;;;10.57;;
18875;SDS011;9570;50.854;13.778;2022-12-11T08:27:40;15.03;;;8.83;;
18875;SDS011;9570;50.854;13.778;2022-12-11T08:30:06;17.53;;;9.57;;
18875;SDS011;9570;50.854;13.778;2022-12-11T08:32:32;18.30;;;10.50;;
18875;SDS011;9570;50.854;13.778;2022-12-11T08:34:58;17.00;;;10.05;;
18875;SDS011;9570;50.854;13.778;2022-12-11T08:37:24;19.93;;;11.03;;
18875;SDS011;9570;50.854;13.778;2022-12-11T08:39:49;17.93;;;10.17;;
18875;SDS011;9570;50.854;13.778;2022-12-11T08:42:15;17.47;;;10.40;;
18875;SDS011;9570;50.854;13.778;2022-12-11T08:44:40;17.20;;;10.07;;
18875;SDS011;9570;50.854;13.778;2022-12-11T08:47:06;15.33;;;9.43;;
18875;SDS011;9570;50.854;13.778;2022-12-11T08:49:33;19.00;;;10.20;;
18875;SDS011;9570;50.854;13.778;2022-12-11T08:51:59;16.43;;;9.60;;
18875;SDS011;9570;50.854;13.778;2022-12-11T08:54:26;17.55;;;10.00;;
18875;SDS011;9570;50.854;13.778;2022-12-11T08:56:52;16.33;;;9.87;;
18875;SDS011;9570;50.854;13.778;2022-12-11T08:59:17;17.80;;;10.17;;
18875;SDS011;9570;50.854;13.778;2022-12-11T09:01:43;15.20;;;9.90;;
18875;SDS011;9570;50.854;13.778;2022-12-11T09:04:08;16.73;;;9.80;;
18875;SDS011;9570;50.854;13.778;2022-12-11T09:06:34;15.37;;;9.17;;
18875;SDS011;9570;50.854;13.778;2022-12-11T09:08:59;15.90;;;9.97;;
18875;SDS011;9570;50.854;13.778;2022-12-11T09:11:27;16.17;;;9.55;;
18875;SDS011;9570;50.854;13.778;2022-12-11T09:13:55;15.23;;;9.27;;
18875;SDS011;9570;50.854;13.778;2022-12-11T09:16:22;14.97;;;10.00;;
18875;SDS011;9570;50.854;13.778;2022-12-11T09:18:49;16.55;;;9.73;;
18875;SDS011;9570;50.854;13.778;2022-12-11T09:21:18;16.77;;;9.80;;
18875;SDS011;9570;50.854;13.778;2022-12-11T09:23:45;18.30;;;9.77;;
18875;SDS011;9570;50.854;13.778;2022-12-11T09:26:12;17.67;;;9.65;;
18875;SDS011;9570;50.854;13.778;2022-12-11T09:28:39;13.40;;;8.90;;
18875;SDS011;9570;50.854;13.778;2022-12-11T09:31:07;15.52;;;9.15;;
18875;SDS011;9570;50.854;13.778;2022-12-11T09:33:33;16.05;;;10.02;;
18875;SDS011;9570;50.854;13.778;2022-12-11T09:35:59;13.93;;;9.20;;
18875;SDS011;9570;50.854;13.778;2022-12-11T09:38:26;16.40;;;10.05;;
18875;SDS011;9570;50.854;13.778;2022-12-11T09:40:52;16.73;;;10.07;;
18875;SDS011;9570;50.854;13.778;2022-12-11T09:43:37;16.50;;;9.67;;
18875;SDS011;9570;50.854;13.778;2022-12-11T09:46:16;15.73;;;9.32;;
18875;SDS011;9570;50.854;13.778;2022-12-11T09:48:43;15.68;;;8.98;;
18875;SDS011;9570;50.854;13.778;2022-12-11T09:51:22;14.48;;;9.00;;
18875;SDS011;9570;50.854;13.778;2022-12-11T09:53:52;14.18;;;8.52;;
18875;SDS011;9570;50.854;13.778;2022-12-11T09:56:29;13.90;;;9.10;;
18875;SDS011;9570;50.854;13.778;2022-12-11T10:02:11;13.68;;;8.60;;
18875;SDS011;9570;50.854;13.778;2022-12-11T10:07:50;15.02;;;9.20;;
18875;SDS011;9570;50.854;13.778;2022-12-11T10:10:39;16.05;;;9.30;;
18875;SDS011;9570;50.854;13.778;2022-12-11T10:15:39;14.40;;;8.32;;
18875;SDS011;9570;50.854;13.778;2022-12-11T10:18:27;14.48;;;8.73;;
18875;SDS011;9570;50.854;13.778;2022-12-11T10:20:54;13.85;;;8.85;;
18875;SDS011;9570;50.854;13.778;2022-12-11T10:23:23;11.57;;;7.75;;
18875;SDS011;9570;50.854;13.778;2022-12-11T10:26:10;14.27;;;8.35;;
18875;SDS011;9570;50.854;13.778;2022-12-11T10:28:44;11.82;;;8.30;;
18875;SDS011;9570;50.854;13.778;2022-12-11T10:31:13;14.07;;;8.20;;
18875;SDS011;9570;50.854;13.778;2022-12-11T10:33:58;14.85;;;8.57;;
18875;SDS011;9570;50.854;13.778;2022-12-11T10:36:30;13.00;;;8.25;;
18875;SDS011;9570;50.854;13.778;2022-12-11T10:38:59;14.43;;;8.15;;
18875;SDS011;9570;50.854;13.778;2022-12-11T10:44:11;11.73;;;8.18;;
18875;SDS011;9570;50.854;13.778;2022-12-11T10:46:40;13.98;;;8.13;;
18875;SDS011;9570;50.854;13.778;2022-12-11T10:49:17;14.60;;;8.57;;
18875;SDS011;9570;50.854;13.778;2022-12-11T10:51:54;14.70;;;8.95;;
18875;SDS011;9570;50.854;13.778;2022-12-11T10:56:55;12.98;;;8.05;;
18875;SDS011;9570;50.854;13.778;2022-12-11T10:59:36;15.02;;;8.70;;
18875;SDS011;9570;50.854;13.778;2022-12-11T11:05:12;14.70;;;8.25;;
18875;SDS011;9570;50.854;13.778;2022-12-11T11:07:41;12.75;;;8.23;;
18875;SDS011;9570;50.854;13.778;2022-12-11T11:12:45;11.85;;;8.30;;
18875;SDS011;9570;50.854;13.778;2022-12-11T11:15:13;15.07;;;8.98;;
18875;SDS011;9570;50.854;13.778;2022-12-11T11:17:43;14.55;;;8.68;;
18875;SDS011;9570;50.854;13.778;2022-12-11T11:20:17;14.05;;;8.60;;
18875;SDS011;9570;50.854;13.778;2022-12-11T11:22:54;15.93;;;9.57;;
18875;SDS011;9570;50.854;13.778;2022-12-11T11:25:26;13.95;;;8.25;;
18875;SDS011;9570;50.854;13.778;2022-12-11T11:30:22;15.77;;;8.93;;
18875;SDS011;9570;50.854;13.778;2022-12-11T11:33:03;13.93;;;8.85;;
18875;SDS011;9570;50.854;13.778;2022-12-11T11:35:30;14.02;;;8.73;;
18875;SDS011;9570;50.854;13.778;2022-12-11T11:38:18;15.23;;;8.30;;
18875;SDS011;9570;50.854;13.778;2022-12-11T11:40:50;13.00;;;8.40;;
18875;SDS011;9570;50.854;13.778;2022-12-11T11:43:31;13.65;;;8.25;;
18875;SDS011;9570;50.854;13.778;2022-12-11T11:46:03;13.45;;;8.32;;
18875;SDS011;9570;50.854;13.778;2022-12-11T11:51:13;13.85;;;8.43;;
18875;SDS011;9570;50.854;13.778;2022-12-11T11:53:52;14.20;;;8.52;;
18875;SDS011;9570;50.854;13.778;2022-12-11T11:56:25;12.90;;;8.02;;
18875;SDS011;9570;50.854;13.778;2022-12-11T12:01:47;14.45;;;8.23;;
18875;SDS011;9570;50.854;13.778;2022-12-11T12:04:15;13.52;;;7.85;;
18875;SDS011;9570;50.854;13.778;2022-12-11T12:06:59;12.60;;;7.93;;
18875;SDS011;9570;50.854;13.778;2022-12-11T12:09:42;12.85;;;7.70;;
18875;SDS011;9570;50.854;13.778;2022-12-11T12:25:25;11.93;;;8.00;;
18875;SDS011;9570;50.854;13.778;2022-12-11T12:36:16;12.75;;;8.43;;
18875;SDS011;9570;50.854;13.778;2022-12-11T12:38:53;13.93;;;7.90;;
18875;SDS011;9570;50.854;13.778;2022-12-11T12:41:35;13.45;;;7.72;;
18875;SDS011;9570;50.854;13.778;2022-12-11T12:44:19;10.88;;;7.40;;
18875;SDS011;9570;50.854;13.778;2022-12-11T12:46:49;12.23;;;7.70;;
18875;SDS011;9570;50.854;13.778;2022-12-11T12:49:18;11.75;;;7.07;;
18875;SDS011;9570;50.854;13.778;2022-12-11T12:52:01;11.32;;;7.25;;
18875;SDS011;9570;50.854;13.778;2022-12-11T12:54:28;9.50;;;6.13;;
18875;SDS011;9570;50.854;13.778;2022-12-11T12:56:55;11.30;;;7.65;;
18875;SDS011;9570;50.854;13.778;2022-12-11T12:59:23;13.07;;;7.55;;
18875;SDS011;9570;50.854;13.778;2022-12-11T13:01:52;13.38;;;7.03;;
18875;SDS011;9570;50.854;13.778;2022-12-11T13:07:09;12.77;;;7.85;;
18875;SDS011;9570;50.854;13.778;2022-12-11T13:09:54;10.65;;;7.20;;
18875;SDS011;9570;50.854;13.778;2022-12-11T13:12:29;11.45;;;7.18;;
18875;SDS011;9570;50.854;13.778;2022-12-11T13:14:56;12.18;;;7.32;;
18875;SDS011;9570;50.854;13.778;2022-12-11T13:17:23;10.50;;;6.90;;
18875;SDS011;9570;50.854;13.778;2022-12-11T13:20:12;8.80;;;6.20;;
18875;SDS011;9570;50.854;13.778;2022-12-11T13:22:49;11.07;;;6.47;;
18875;SDS011;9570;50.854;13.778;2022-12-11T13:25:21;11.00;;;7.03;;
18875;SDS011;9570;50.854;13.778;2022-12-11T13:27:49;11.02;;;6.57;;
18875;SDS011;9570;50.854;13.778;2022-12-11T13:33:06;11.57;;;7.13;;
18875;SDS011;9570;50.854;13.778;2022-12-11T13:35:39;10.85;;;7.70;;
18875;SDS011;9570;50.854;13.778;2022-12-11T13:38:06;11.70;;;7.40;;
18875;SDS011;9570;50.854;13.778;2022-12-11T13:40:39;12.85;;;7.72;;
18875;SDS011;9570;50.854;13.778;2022-12-11T13:43:17;11.05;;;6.90;;
18875;SDS011;9570;50.854;13.778;2022-12-11T13:45:50;10.23;;;6.95;;
18875;SDS011;9570;50.854;13.778;2022-12-11T13:48:46;13.02;;;7.78;;
18875;SDS011;9570;50.854;13.778;2022-12-11T13:51:15;12.30;;;7.72;;
18875;SDS011;9570;50.854;13.778;2022-12-11T13:53:42;11.25;;;7.15;;
18875;SDS011;9570;50.854;13.778;2022-12-11T13:56:16;12.95;;;7.75;;
18875;SDS011;9570;50.854;13.778;2022-12-11T13:58:43;12.40;;;7.70;;
18875;SDS011;9570;50.854;13.778;2022-12-11T14:04:10;11.43;;;7.40;;
18875;SDS011;9570;50.854;13.778;2022-12-11T14:06:41;11.75;;;7.68;;
18875;SDS011;9570;50.854;13.778;2022-12-11T14:09:07;11.77;;;8.23;;
18875;SDS011;9570;50.854;13.778;2022-12-11T14:11:33;13.10;;;8.40;;
18875;SDS011;9570;50.854;13.778;2022-12-11T14:14:02;11.27;;;7.25;;
18875;SDS011;9570;50.854;13.778;2022-12-11T14:16:30;11.32;;;7.40;;
18875;SDS011;9570;50.854;13.778;2022-12-11T14:18:58;12.68;;;7.72;;
18875;SDS011;9570;50.854;13.778;2022-12-11T14:21:28;10.35;;;6.90;;
18875;SDS011;9570;50.854;13.778;2022-12-11T14:23:57;11.83;;;7.50;;
18875;SDS011;9570;50.854;13.778;2022-12-11T14:26:26;11.68;;;6.97;;
18875;SDS011;9570;50.854;13.778;2022-12-11T14:28:53;12.48;;;7.75;;
18875;SDS011;9570;50.854;13.778;2022-12-11T14:31:25;10.05;;;7.15;;
18875;SDS011;9570;50.854;13.778;2022-12-11T14:34:20;10.48;;;7.00;;
18875;SDS011;9570;50.854;13.778;2022-12-11T14:36:52;10.00;;;6.80;;
18875;SDS011;9570;50.854;13.778;2022-12-11T14:39:21;12.02;;;7.20;;
18875;SDS011;9570;50.854;13.778;2022-12-11T14:41:53;10.20;;;6.85;;
18875;SDS011;9570;50.854;13.778;2022-12-11T14:44:29;12.07;;;6.93;;
18875;SDS011;9570;50.854;13.778;2022-12-11T14:47:03;12.63;;;7.82;;
18875;SDS011;9570;50.854;13.778;2022-12-11T14:49:39;9.20;;;6.32;;
18875;SDS011;9570;50.854;13.778;2022-12-11T14:52:32;11.05;;;7.00;;
18875;SDS011;9570;50.854;13.778;2022-12-11T14:55:13;12.25;;;7.75;;
18875;SDS011;9570;50.854;13.778;2022-12-11T14:57:43;12.05;;;7.82;;
18875;SDS011;9570;50.854;13.778;2022-12-11T15:00:21;12.88;;;7.63;;
18875;SDS011;9570;50.854;13.778;2022-12-11T15:02:58;13.10;;;7.93;;
18875;SDS011;9570;50.854;13.778;2022-12-11T15:05:51;11.98;;;7.38;;
18875;SDS011;9570;50.854;13.778;2022-12-11T15:08:31;12.25;;;7.65;;
18875;SDS011;9570;50.854;13.778;2022-12-11T15:13:30;10.85;;;7.40;;
18875;SDS011;9570;50.854;13.778;2022-12-11T15:15:57;13.32;;;8.25;;
18875;SDS011;9570;50.854;13.778;2022-12-11T15:18:26;13.82;;;8.48;;
18875;SDS011;9570;50.854;13.778;2022-12-11T15:20:57;12.70;;;8.23;;
18875;SDS011;9570;50.854;13.778;2022-12-11T15:23:25;15.75;;;9.43;;
18875;SDS011;9570;50.854;13.778;2022-12-11T15:25:53;15.20;;;8.35;;
18875;SDS011;9570;50.854;13.778;2022-12-11T15:31:04;14.20;;;8.27;;
18875;SDS011;9570;50.854;13.778;2022-12-11T15:33:31;15.48;;;8.50;;
18875;SDS011;9570;50.854;13.778;2022-12-11T15:36:02;16.87;;;10.43;;
18875;SDS011;9570;50.854;13.778;2022-12-11T15:41:04;14.57;;;8.52;;
18875;SDS011;9570;50.854;13.778;2022-12-11T15:43:32;13.15;;;8.10;;
18875;SDS011;9570;50.854;13.778;2022-12-11T15:46:01;14.23;;;8.40;;
18875;SDS011;9570;50.854;13.778;2022-12-11T15:48:27;14.18;;;8.60;;
18875;SDS011;9570;50.854;13.778;2022-12-11T15:50:53;12.07;;;7.90;;
18875;SDS011;9570;50.854;13.778;2022-12-11T15:53:19;14.20;;;8.37;;
18875;SDS011;9570;50.854;13.778;2022-12-11T15:55:44;12.23;;;7.73;;
18875;SDS011;9570;50.854;13.778;2022-12-11T15:58:13;13.40;;;8.10;;